createdAt,value
2023-03-10T00:01:30.329Z,65.44
2023-03-10T00:04:01.047Z,65.78
2023-03-10T00:06:33.554Z,65.88
2023-03-10T00:09:02.212Z,66.49
2023-03-10T00:11:30.129Z,66.63
2023-03-10T00:13:58.026Z,66.54
2023-03-10T00:16:29.329Z,66.73
2023-03-10T00:18:57.855Z,66.74
2023-03-10T00:21:30.931Z,66.44
2023-03-10T00:23:59.726Z,66.63
2023-03-10T00:26:29.691Z,67.62
2023-03-10T00:28:58.145Z,67.40
2023-03-10T00:31:28.223Z,68.05
2023-03-10T00:33:56.667Z,67.80
2023-03-10T00:36:29.132Z,68.13
2023-03-10T00:39:00.996Z,68.17
2023-03-10T00:41:31.465Z,68.51
2023-03-10T00:44:01.159Z,68.57
2023-03-10T00:46:30.168Z,68.83
2023-03-10T00:48:58.269Z,68.85
2023-03-10T00:51:26.305Z,68.87
2023-03-10T00:53:56.037Z,68.67
2023-03-10T00:56:27.551Z,69.23
2023-03-10T00:59:00.549Z,69.85
2023-03-10T01:01:37.557Z,69.63
2023-03-10T01:04:12.302Z,69.32
2023-03-10T01:06:40.466Z,69.98
2023-03-10T01:09:08.884Z,70.27
2023-03-10T01:11:37.147Z,70.46
2023-03-10T01:14:08.109Z,70.71
2023-03-10T01:16:36.242Z,70.67
2023-03-10T01:19:04.427Z,70.66
2023-03-10T01:21:36.349Z,70.76
2023-03-10T01:24:05.618Z,71.58
2023-03-10T01:26:34.083Z,71.48
2023-03-10T01:29:02.237Z,71.17
2023-03-10T01:31:30.154Z,72.16
2023-03-10T01:33:58.547Z,71.88
2023-03-10T01:36:28.389Z,71.91
2023-03-10T01:38:57.722Z,72.13
2023-03-10T01:41:26.402Z,71.99
2023-03-10T01:43:58.380Z,72.16
2023-03-10T01:46:44.636Z,72.08
2023-03-10T01:49:26.492Z,72.09
2023-03-10T01:52:00.442Z,71.76
2023-03-10T01:54:43.324Z,72.39
2023-03-10T01:57:14.062Z,72.33
2023-03-10T01:59:42.946Z,72.62
2023-03-10T02:02:11.506Z,72.57
2023-03-10T02:04:44.709Z,71.94
2023-03-10T02:07:13.743Z,72.30
2023-03-10T02:09:44.457Z,71.69
2023-03-10T02:12:15.313Z,71.08
2023-03-10T02:14:45.807Z,71.28
2023-03-10T02:17:18.301Z,71.66
2023-03-10T02:20:16.891Z,72.78
2023-03-10T02:22:44.855Z,72.63
2023-03-10T02:25:25.191Z,73.20
2023-03-10T02:27:53.952Z,73.05
2023-03-10T02:30:31.020Z,72.51
2023-03-10T02:33:09.253Z,72.73
2023-03-10T02:35:37.338Z,73.10
2023-03-10T02:38:10.144Z,73.28
2023-03-10T02:40:47.654Z,73.21
2023-03-10T02:43:28.436Z,73.04
2023-03-10T02:46:05.567Z,73.14
2023-03-10T02:48:39.172Z,74.07
2023-03-10T02:51:16.558Z,74.77
2023-03-10T02:53:44.662Z,74.13
2023-03-10T02:57:17.617Z,74.52
2023-03-10T02:59:45.622Z,74.89
2023-03-10T03:02:13.595Z,75.64
2023-03-10T03:04:41.513Z,74.79
2023-03-10T03:07:09.724Z,74.34
2023-03-10T03:09:40.193Z,74.38
2023-03-10T03:12:08.854Z,74.64
2023-03-10T03:14:37.732Z,74.29
2023-03-10T03:17:07.604Z,73.40
2023-03-10T03:19:35.735Z,74.11
2023-03-10T03:22:04.032Z,74.20
2023-03-10T03:24:32.726Z,74.34
2023-03-10T03:27:00.553Z,74.36
2023-03-10T03:29:29.593Z,73.68
2023-03-10T03:31:57.572Z,74.01
2023-03-10T03:34:29.956Z,75.12
2023-03-10T03:37:01.679Z,74.92
2023-03-10T03:39:34.659Z,75.44
2023-03-10T03:42:06.174Z,75.20
2023-03-10T03:44:43.495Z,74.96
2023-03-10T03:47:12.354Z,75.79
2023-03-10T03:49:40.715Z,75.15
2023-03-10T03:52:09.013Z,75.48
2023-03-10T03:54:36.981Z,74.96
2023-03-10T03:57:04.955Z,75.58
2023-03-10T03:59:33.026Z,77.46
2023-03-10T04:02:01.558Z,78.20
2023-03-10T04:04:29.587Z,76.99
2023-03-10T04:06:57.938Z,76.73
2023-03-10T04:09:26.249Z,76.19
2023-03-10T04:11:54.657Z,76.41
2023-03-10T04:14:24.955Z,76.49
2023-03-10T04:16:54.721Z,76.27
2023-03-10T04:19:22.706Z,76.43
2023-03-10T04:21:55.051Z,76.66
2023-03-10T04:24:24.144Z,75.85
2023-03-10T04:26:54.108Z,76.09
2023-03-10T04:29:24.703Z,76.92
2023-03-10T04:32:04.812Z,76.60
2023-03-10T04:34:39.342Z,76.53
2023-03-10T04:37:07.685Z,76.80
2023-03-10T04:39:37.229Z,77.22
2023-03-10T04:42:06.398Z,77.44
2023-03-10T04:44:34.842Z,77.67
2023-03-10T04:47:05.996Z,77.73
2023-03-10T04:49:34.129Z,77.19
2023-03-10T04:52:03.016Z,77.85
2023-03-10T04:54:31.362Z,77.35
2023-03-10T04:57:00.104Z,77.37
2023-03-10T04:59:28.455Z,76.76
2023-03-10T05:01:56.864Z,76.53
2023-03-10T05:04:25.137Z,76.50
2023-03-10T05:06:55.211Z,77.53
2023-03-10T05:09:30.279Z,77.97
2023-03-10T05:11:58.674Z,77.76
2023-03-10T05:14:30.609Z,77.82
2023-03-10T05:16:58.617Z,77.68
2023-03-10T05:19:29.008Z,77.58
2023-03-10T05:21:59.254Z,77.67
2023-03-10T05:24:27.926Z,76.47
2023-03-10T05:26:55.954Z,76.42
2023-03-10T05:29:25.258Z,76.16
2023-03-10T05:31:59.730Z,76.06
2023-03-10T05:34:33.318Z,75.37
2023-03-10T05:37:04.188Z,76.12
2023-03-10T05:39:32.449Z,75.53
2023-03-10T05:42:04.046Z,74.53
2023-03-10T05:44:34.752Z,75.11
2023-03-10T05:47:05.544Z,74.18
2023-03-10T05:49:33.717Z,74.49
2023-03-10T05:52:01.635Z,73.59
2023-03-10T05:54:29.706Z,73.52
2023-03-10T05:56:59.019Z,73.64
2023-03-10T05:59:29.042Z,73.38
2023-03-10T06:01:57.297Z,72.80
2023-03-10T06:04:25.787Z,73.21
2023-03-10T06:06:56.265Z,74.48
2023-03-10T06:09:24.277Z,74.65
2023-03-10T06:11:52.183Z,73.68
2023-03-10T06:14:20.145Z,72.98
2023-03-10T06:16:52.090Z,72.56
2023-03-10T06:19:21.928Z,72.11
2023-03-10T06:21:50.276Z,71.83
2023-03-10T06:24:18.814Z,71.61
2023-03-10T06:26:46.798Z,71.53
2023-03-10T06:29:14.887Z,71.29
2023-03-10T06:31:42.873Z,71.51
2023-03-10T06:34:11.131Z,71.17
2023-03-10T06:36:40.602Z,71.12
2023-03-10T06:39:08.780Z,71.11
2023-03-10T06:41:37.712Z,71.51
2023-03-10T06:44:06.066Z,71.02
2023-03-10T06:46:34.679Z,70.72
2023-03-10T06:49:02.587Z,70.23
2023-03-10T06:51:30.706Z,69.90
2023-03-10T06:53:58.582Z,69.77
2023-03-10T06:56:26.618Z,69.44
2023-03-10T06:58:54.543Z,69.05
2023-03-10T07:01:25.800Z,69.21
2023-03-10T07:03:54.537Z,68.84
2023-03-10T07:06:23.484Z,68.69
2023-03-10T07:08:52.811Z,68.27
2023-03-10T07:11:21.266Z,68.28
2023-03-10T07:13:49.286Z,68.29
2023-03-10T07:16:18.023Z,67.75
2023-03-10T07:18:46.191Z,67.68
2023-03-10T07:21:20.121Z,67.16
2023-03-10T07:23:48.579Z,66.98
2023-03-10T07:26:19.023Z,66.86
2023-03-10T07:28:49.690Z,68.47
2023-03-10T07:31:18.273Z,68.24
2023-03-10T07:33:46.970Z,67.92
2023-03-10T07:36:19.034Z,67.47
2023-03-10T07:38:47.375Z,67.06
2023-03-10T07:41:19.862Z,66.81
2023-03-10T07:43:51.357Z,66.48
2023-03-10T07:46:21.052Z,66.86
2023-03-10T07:48:49.593Z,66.52
2023-03-10T07:51:17.661Z,65.82
2023-03-10T07:53:46.264Z,65.05
2023-03-10T07:56:14.882Z,64.48
2023-03-10T07:58:42.962Z,63.49
2023-03-10T08:01:19.358Z,62.32
2023-03-10T08:03:48.058Z,61.01
2023-03-10T08:06:25.455Z,60.14
2023-03-10T08:08:54.288Z,59.59
2023-03-10T08:11:23.075Z,57.09
2023-03-10T08:13:51.454Z,56.99
2023-03-10T08:16:21.390Z,56.04
2023-03-10T08:18:51.699Z,54.88
2023-03-10T08:21:19.748Z,52.71
2023-03-10T08:23:47.954Z,52.66
2023-03-10T08:26:18.291Z,54.08
2023-03-10T08:28:48.275Z,55.53
2023-03-10T08:31:21.569Z,55.38
2023-03-10T08:33:50.165Z,56.05
2023-03-10T08:36:21.122Z,55.15
2023-03-10T08:38:51.281Z,49.58
2023-03-10T08:41:32.435Z,42.74
2023-03-10T08:44:00.877Z,40.64
2023-03-10T08:46:33.375Z,38.38
2023-03-10T08:49:01.947Z,36.01
2023-03-10T08:51:30.101Z,32.78
2023-03-10T08:53:58.109Z,34.28
2023-03-10T08:56:26.740Z,36.61
2023-03-10T08:58:59.188Z,38.35
2023-03-10T09:01:30.817Z,41.16
2023-03-10T09:04:00.032Z,40.45
2023-03-10T09:06:28.993Z,39.83
2023-03-10T09:08:57.440Z,37.42
2023-03-10T09:11:31.846Z,36.70
2023-03-10T09:14:00.978Z,37.38
2023-03-10T09:16:30.289Z,36.17
2023-03-10T09:18:59.478Z,34.59
2023-03-10T09:21:31.946Z,33.71
2023-03-10T09:24:02.655Z,34.01
2023-03-10T09:26:31.258Z,35.70
2023-03-10T09:28:59.335Z,38.82
2023-03-10T09:31:33.077Z,39.18
2023-03-10T09:34:01.440Z,40.56
2023-03-10T09:36:30.046Z,41.50
2023-03-10T09:38:58.819Z,43.11
2023-03-10T09:41:37.000Z,43.75
2023-03-10T09:44:35.180Z,45.29
2023-03-10T09:47:20.130Z,45.58
2023-03-10T09:50:03.923Z,46.38
2023-03-10T09:52:37.422Z,47.53
2023-03-10T09:55:20.834Z,47.92
2023-03-10T09:57:52.502Z,50.15
2023-03-10T10:00:41.693Z,50.05
2023-03-10T10:03:19.368Z,49.43
2023-03-10T10:05:49.687Z,49.56
2023-03-10T10:08:28.681Z,48.81
2023-03-10T10:10:59.189Z,49.11
2023-03-10T10:13:30.849Z,50.62
2023-03-10T10:16:34.594Z,50.81
2023-03-10T10:19:24.823Z,51.74
2023-03-10T10:22:07.794Z,51.19
2023-03-10T10:24:35.764Z,52.66
2023-03-10T10:27:03.833Z,50.89
2023-03-10T10:29:31.868Z,52.05
2023-03-10T10:32:14.654Z,53.31
2023-03-10T10:34:44.861Z,53.63
2023-03-10T10:37:32.608Z,53.56
2023-03-10T10:40:02.055Z,54.53
2023-03-10T10:42:34.759Z,53.74
2023-03-10T10:45:08.319Z,56.94
2023-03-10T10:47:54.884Z,57.80
2023-03-10T10:50:24.436Z,58.02
2023-03-10T10:53:14.026Z,60.74
2023-03-10T10:55:45.052Z,61.37
2023-03-10T10:58:28.659Z,63.83
2023-03-10T11:01:14.657Z,72.06
2023-03-10T11:03:51.223Z,72.76
2023-03-10T11:06:21.712Z,74.16
2023-03-10T11:08:53.014Z,75.56
2023-03-10T11:11:28.860Z,74.75
2023-03-10T11:14:37.801Z,78.31
2023-03-10T11:17:36.566Z,78.03
2023-03-10T11:20:24.970Z,77.58
2023-03-10T11:23:26.069Z,76.99
2023-03-10T11:26:10.635Z,77.05
2023-03-10T11:28:49.266Z,76.82
2023-03-10T11:31:24.206Z,79.01
2023-03-10T11:34:07.263Z,79.92
2023-03-10T11:36:59.422Z,80.52
2023-03-10T11:39:32.736Z,79.15
2023-03-10T11:42:39.738Z,75.12
2023-03-10T11:45:14.050Z,74.67
2023-03-10T11:48:02.389Z,72.35
2023-03-10T11:50:53.120Z,71.66
2023-03-10T11:53:32.951Z,76.60
2023-03-10T11:56:02.724Z,77.14
2023-03-10T11:58:41.976Z,74.71
2023-03-10T12:01:15.468Z,75.19
2023-03-10T12:03:49.468Z,74.64
2023-03-10T12:06:28.395Z,76.13
2023-03-10T12:08:58.907Z,77.41
2023-03-10T12:11:29.378Z,78.98
2023-03-10T12:14:00.697Z,79.93
2023-03-10T12:16:36.802Z,78.87
2023-03-10T12:19:06.460Z,80.42
2023-03-10T12:21:34.854Z,82.10
2023-03-10T12:24:04.461Z,81.63
2023-03-10T12:26:59.938Z,81.43
2023-03-10T12:29:41.130Z,80.51
2023-03-10T12:32:27.720Z,79.98
2023-03-10T12:35:23.259Z,79.65
2023-03-10T12:38:31.160Z,79.53
2023-03-10T12:41:01.366Z,78.76
2023-03-10T12:43:47.689Z,78.56
2023-03-10T12:46:40.608Z,78.37
2023-03-10T12:49:20.864Z,78.19
2023-03-10T12:51:54.979Z,77.53
2023-03-10T12:54:44.752Z,77.15
2023-03-10T12:57:52.366Z,78.05
2023-03-10T13:00:38.842Z,77.98
2023-03-10T13:03:09.976Z,77.69
2023-03-10T13:05:42.098Z,77.76
2023-03-10T13:08:24.815Z,78.41
2023-03-10T13:10:55.389Z,78.87
2023-03-10T13:13:30.343Z,78.80
2023-03-10T13:16:01.437Z,79.36
2023-03-10T13:18:29.729Z,78.69
2023-03-10T13:21:01.876Z,78.52
2023-03-10T13:23:34.591Z,75.71
2023-03-10T13:26:08.116Z,72.98
2023-03-10T13:28:36.708Z,73.39
2023-03-10T13:31:12.612Z,72.37
2023-03-10T13:33:52.278Z,68.22
2023-03-10T13:36:35.778Z,69.93
2023-03-10T13:39:25.618Z,68.64
2023-03-10T13:41:58.813Z,69.32
2023-03-10T13:44:38.833Z,67.18
2023-03-10T13:47:42.160Z,67.97
2023-03-10T13:50:15.868Z,70.46
2023-03-10T13:52:59.926Z,66.98
2023-03-10T13:55:29.218Z,69.52
2023-03-10T13:57:58.474Z,71.30
2023-03-10T14:00:27.676Z,70.24
2023-03-10T14:02:56.338Z,68.54
2023-03-10T14:05:46.069Z,69.48
2023-03-10T14:08:21.421Z,68.24
2023-03-10T14:10:50.160Z,68.59
2023-03-10T14:13:44.132Z,70.22
2023-03-10T14:16:12.797Z,68.21
2023-03-10T14:18:42.921Z,67.40
2023-03-10T14:21:31.647Z,68.23
2023-03-10T14:24:05.069Z,66.70
2023-03-10T14:26:34.192Z,65.96
2023-03-10T14:29:06.664Z,66.07
2023-03-10T14:31:34.758Z,66.03
2023-03-10T14:34:03.012Z,64.72
2023-03-10T14:36:31.197Z,64.36
2023-03-10T14:38:59.527Z,65.36
2023-03-10T14:41:28.090Z,64.96
2023-03-10T14:43:55.964Z,64.95
2023-03-10T14:46:24.195Z,62.47
2023-03-10T14:48:52.361Z,61.47
2023-03-10T14:51:34.656Z,61.79
2023-03-10T14:54:04.102Z,62.50
2023-03-10T14:56:33.600Z,61.91
2023-03-10T14:59:02.722Z,59.60
2023-03-10T15:01:31.360Z,60.58
2023-03-10T15:03:59.473Z,60.33
2023-03-10T15:06:27.507Z,61.23
2023-03-10T15:08:55.661Z,60.48
2023-03-10T15:11:36.220Z,60.80
2023-03-10T15:14:15.666Z,62.25
2023-03-10T15:16:44.270Z,61.19
2023-03-10T15:19:25.140Z,61.72
2023-03-10T15:21:53.691Z,62.35
2023-03-10T15:24:22.004Z,61.80
2023-03-10T15:26:50.684Z,64.01
2023-03-10T15:29:20.650Z,65.13
2023-03-10T15:31:48.921Z,65.07
2023-03-10T15:34:18.781Z,65.54
2023-03-10T15:36:48.000Z,65.65
2023-03-10T15:39:25.529Z,66.43
2023-03-10T15:41:59.420Z,65.44
2023-03-10T15:44:27.504Z,64.91
2023-03-10T15:46:56.251Z,65.24
2023-03-10T15:49:24.852Z,64.85
2023-03-10T15:51:53.214Z,65.52
2023-03-10T15:54:21.780Z,66.60
2023-03-10T15:56:50.086Z,67.10
2023-03-10T15:59:18.368Z,67.63
2023-03-10T16:01:46.531Z,67.92
2023-03-10T16:04:15.010Z,67.19
2023-03-10T16:06:43.147Z,67.00
2023-03-10T16:09:11.676Z,67.23
2023-03-10T16:11:39.899Z,66.92
2023-03-10T16:14:08.366Z,67.10
2023-03-10T16:16:36.769Z,67.25
2023-03-10T16:19:05.436Z,68.05
2023-03-10T16:21:33.930Z,67.70
2023-03-10T16:24:02.402Z,68.48
2023-03-10T16:26:30.771Z,68.74
2023-03-10T16:28:59.332Z,68.94
2023-03-10T16:31:28.173Z,68.88
2023-03-10T16:33:56.786Z,69.25
2023-03-10T16:36:27.683Z,69.55
2023-03-10T16:38:56.763Z,69.58
2023-03-10T16:41:24.796Z,72.75
2023-03-10T16:43:54.934Z,72.85
2023-03-10T16:46:26.104Z,74.14
2023-03-10T16:48:55.979Z,74.20
2023-03-10T16:51:33.269Z,74.46
2023-03-10T16:54:12.210Z,76.39
2023-03-10T16:56:44.432Z,76.35
2023-03-10T16:59:18.044Z,77.46
2023-03-10T17:01:48.471Z,77.45
2023-03-10T17:04:17.423Z,78.79
2023-03-10T17:06:47.187Z,78.25
2023-03-10T17:09:28.296Z,77.74
2023-03-10T17:11:56.911Z,79.55
2023-03-10T17:14:28.501Z,80.20
2023-03-10T17:16:57.048Z,79.69
2023-03-10T17:19:33.005Z,76.55
2023-03-10T17:22:07.485Z,75.55
2023-03-10T17:24:36.772Z,76.66
2023-03-10T17:27:07.830Z,74.69
2023-03-10T17:29:37.176Z,74.54
2023-03-10T17:32:06.670Z,74.05
2023-03-10T17:34:35.096Z,74.66
2023-03-10T17:37:03.374Z,73.69
2023-03-10T17:39:43.141Z,73.33
2023-03-10T17:42:12.418Z,74.76
2023-03-10T17:44:40.899Z,75.06
2023-03-10T17:49:55.721Z,74.55
2023-03-10T17:52:26.522Z,76.20
2023-03-10T17:54:55.331Z,75.63
2023-03-10T17:57:24.326Z,76.21
2023-03-10T17:59:52.742Z,76.40
2023-03-10T18:02:21.154Z,76.97
2023-03-10T18:04:49.599Z,78.15
2023-03-10T18:10:00.318Z,79.41
2023-03-10T18:12:38.910Z,82.06
2023-03-10T18:15:13.151Z,83.71
2023-03-10T18:17:46.759Z,84.08
2023-03-10T18:20:17.318Z,84.63
2023-03-10T18:22:46.408Z,85.03
2023-03-10T18:25:15.704Z,87.17
2023-03-10T18:27:44.430Z,86.51
2023-03-10T18:30:15.630Z,86.42
2023-03-10T18:32:44.270Z,87.35
2023-03-10T18:35:13.220Z,86.97
2023-03-10T18:37:44.111Z,87.33
2023-03-10T18:40:22.021Z,86.25
2023-03-10T18:42:51.290Z,87.21
2023-03-10T18:45:22.080Z,88.53
2023-03-10T18:50:42.961Z,90.76
2023-03-10T18:53:11.544Z,92.09
2023-03-10T18:55:41.999Z,92.19
2023-03-10T18:58:18.559Z,91.58
2023-03-10T19:03:30.477Z,90.78
2023-03-10T19:05:59.168Z,90.65
2023-03-10T19:08:27.612Z,90.42
2023-03-10T19:13:46.412Z,91.31
2023-03-10T19:16:14.929Z,90.65
2023-03-10T19:18:44.556Z,90.31
2023-03-10T19:21:13.567Z,90.32
2023-03-10T19:23:43.136Z,90.58
2023-03-10T19:26:12.988Z,90.13
2023-03-10T19:28:41.867Z,89.52
2023-03-10T19:31:10.705Z,89.53
2023-03-10T19:33:40.107Z,89.30
2023-03-10T19:36:13.399Z,89.14
2023-03-10T19:38:43.748Z,89.86
2023-03-10T19:41:19.308Z,91.15
2023-03-10T19:43:51.774Z,90.90
2023-03-10T19:46:20.646Z,90.15
2023-03-10T19:48:48.886Z,89.63
2023-03-10T19:51:23.415Z,89.87
2023-03-10T19:53:53.665Z,89.78
2023-03-10T19:56:22.948Z,90.55
2023-03-10T19:58:51.594Z,90.14
2023-03-10T20:01:24.708Z,90.04
2023-03-10T20:03:56.430Z,89.53
2023-03-10T20:06:25.511Z,89.58
2023-03-10T20:08:54.821Z,88.86
2023-03-10T20:11:23.950Z,88.92
2023-03-10T20:13:54.360Z,89.26
2023-03-10T20:16:24.494Z,90.15
2023-03-10T20:18:53.210Z,91.78
2023-03-10T20:21:22.020Z,94.73
2023-03-10T20:23:50.421Z,94.09
2023-03-10T20:26:19.266Z,93.55
2023-03-10T20:28:49.953Z,92.82
2023-03-10T20:31:22.299Z,93.63
2023-03-10T20:33:51.022Z,93.04
2023-03-10T20:36:19.159Z,93.10
2023-03-10T20:38:48.052Z,93.70
2023-03-10T20:41:18.704Z,93.01
2023-03-10T20:43:48.193Z,91.80
2023-03-10T20:46:20.531Z,91.96
2023-03-10T20:48:51.971Z,93.19
2023-03-10T20:51:22.893Z,94.32
2023-03-10T20:53:52.247Z,96.55
2023-03-10T20:56:20.454Z,96.88
2023-03-10T20:58:49.061Z,96.30
2023-03-10T21:01:21.075Z,95.23
2023-03-10T21:03:50.092Z,95.32
2023-03-10T21:06:18.653Z,94.73
2023-03-10T21:08:48.020Z,95.76
2023-03-10T21:11:17.865Z,97.33
2023-03-10T21:13:46.299Z,97.28
2023-03-10T21:16:14.984Z,98.26
2023-03-10T21:18:43.551Z,98.03
2023-03-10T21:21:14.034Z,97.67
2023-03-10T21:23:43.436Z,96.96
2023-03-10T21:26:19.237Z,96.70
2023-03-10T21:28:47.749Z,95.95
2023-03-10T21:31:16.560Z,95.91
2023-03-10T21:33:45.687Z,95.71
2023-03-10T21:36:20.894Z,95.32
2023-03-10T21:38:50.558Z,95.75
2023-03-10T21:41:24.518Z,96.37
2023-03-10T21:43:57.512Z,96.33
2023-03-10T21:46:26.668Z,95.60
2023-03-10T21:48:55.917Z,94.56
2023-03-10T21:51:25.364Z,94.68
2023-03-10T21:53:54.583Z,93.75
2023-03-10T21:56:26.067Z,93.78
2023-03-10T21:58:54.154Z,93.84
2023-03-10T22:01:24.271Z,93.57
2023-03-10T22:03:52.529Z,92.94
2023-03-10T22:06:21.001Z,92.54
2023-03-10T22:08:49.678Z,92.32
2023-03-10T22:11:18.071Z,91.77
2023-03-10T22:13:46.610Z,91.83
2023-03-10T22:16:17.230Z,91.42
2023-03-10T22:18:46.182Z,91.72
2023-03-10T22:21:13.934Z,91.86
2023-03-10T22:23:44.013Z,92.49
2023-03-10T22:26:13.101Z,93.21
2023-03-10T22:28:41.126Z,94.72
2023-03-10T22:31:10.190Z,95.51
2023-03-10T22:33:38.414Z,95.17
2023-03-10T22:36:09.386Z,97.41
2023-03-10T22:38:38.729Z,98.44
2023-03-10T22:41:11.431Z,98.53
2023-03-10T22:43:40.036Z,97.04
2023-03-10T22:46:13.301Z,96.88
2023-03-10T22:48:42.977Z,96.51
2023-03-10T22:51:14.709Z,96.60
2023-03-10T22:53:42.728Z,95.98
2023-03-10T22:56:10.608Z,95.83
2023-03-10T22:58:41.237Z,94.77
2023-03-10T23:01:09.280Z,94.27
2023-03-10T23:03:37.694Z,95.24
2023-03-10T23:06:07.572Z,94.46
2023-03-10T23:08:40.270Z,93.68
2023-03-10T23:11:12.833Z,94.08
2023-03-10T23:13:41.269Z,94.24
2023-03-10T23:16:09.252Z,93.65
2023-03-10T23:18:37.307Z,93.32
2023-03-10T23:21:05.666Z,93.31
2023-03-10T23:23:33.972Z,92.83
2023-03-10T23:26:02.138Z,93.22
2023-03-10T23:28:30.062Z,92.46
2023-03-10T23:31:00.000Z,92.64
2023-03-10T23:33:28.061Z,92.15
2023-03-10T23:35:56.048Z,92.11
2023-03-10T23:38:25.850Z,93.50
2023-03-10T23:40:55.633Z,94.93
2023-03-10T23:43:24.141Z,94.72
2023-03-10T23:45:52.598Z,94.76
2023-03-10T23:48:21.111Z,94.52
2023-03-10T23:50:49.037Z,94.51
2023-03-10T23:53:20.909Z,94.55
2023-03-10T23:55:49.735Z,95.33
2023-03-10T23:58:19.809Z,94.73
